Time;durP1;ratioP1;P1;durP2;ratioP2;P2;SDS_P1;SDS_P2;PMS_P1;PMS_P2;Temp;Humidity;BMP_temperature;BMP_pressure;BME280_temperature;BME280_humidity;BME280_pressure;Samples;Min_cycle;Max_cycle;Signal;HPM_P1;HPM_P2
2022/05/14 00:00:15;;;;;;;1.08;0.40;;;20.60;54.80;;;;;;5032551;28;20048;-66
2022/05/14 00:02:41;;;;;;;0.38;0.30;;;20.60;54.80;;;;;;5032774;28;20111;-66
2022/05/14 00:05:07;;;;;;;0.50;0.40;;;20.60;54.80;;;;;;5032809;28;20535;-66
2022/05/14 00:07:33;;;;;;;0.90;0.50;;;20.60;54.90;;;;;;5033912;28;20057;-66
2022/05/14 00:09:59;;;;;;;1.58;0.30;;;20.60;54.90;;;;;;5033642;28;20029;-66
2022/05/14 00:15:09;;;;;;;0.30;0.30;;;20.60;55.00;;;;;;5033595;28;20036;-67
2022/05/14 00:17:34;;;;;;;1.08;0.40;;;20.60;55.10;;;;;;5033550;28;20022;-67
2022/05/14 00:20:00;;;;;;;2.35;0.70;;;20.60;55.20;;;;;;5033586;28;20491;-67
2022/05/14 00:22:26;;;;;;;2.35;0.50;;;20.60;55.20;;;;;;5032167;28;20021;-67
2022/05/14 00:24:52;;;;;;;0.43;0.40;;;20.60;55.30;;;;;;5033297;28;20380;-67
2022/05/14 00:27:17;;;;;;;1.10;0.50;;;20.60;55.30;;;;;;5031841;28;20021;-67
2022/05/14 00:29:43;;;;;;;1.13;0.47;;;20.60;55.40;;;;;;5033360;28;20452;-66
2022/05/14 00:32:08;;;;;;;1.50;0.60;;;20.60;55.40;;;;;;5033349;28;20442;-66
2022/05/14 00:34:34;;;;;;;2.03;0.73;;;20.60;55.50;;;;;;5032182;28;20381;-66
2022/05/14 00:37:00;;;;;;;0.43;0.30;;;20.60;55.50;;;;;;5032059;28;20017;-66
2022/05/14 00:39:26;;;;;;;0.90;0.45;;;20.60;55.60;;;;;;5033164;28;20033;-66
2022/05/14 00:41:52;;;;;;;1.48;0.68;;;20.60;55.60;;;;;;5032456;28;20045;-66
2022/05/14 00:44:17;;;;;;;3.42;0.60;;;20.60;55.70;;;;;;5031937;28;20029;-66
2022/05/14 00:46:59;;;;;;;1.48;0.63;;;20.60;55.80;;;;;;5032067;28;20018;-66
2022/05/14 00:49:24;;;;;;;0.77;0.75;;;20.70;55.80;;;;;;5031516;28;20495;-66
2022/05/14 00:51:50;;;;;;;0.60;0.47;;;20.60;55.80;;;;;;5031937;28;20083;-66
2022/05/14 00:54:24;;;;;;;1.33;0.60;;;20.60;55.80;;;;;;5031379;28;20380;-66
2022/05/14 00:56:52;;;;;;;1.40;0.57;;;20.60;55.80;;;;;;5031709;28;20491;-66
2022/05/14 00:59:20;;;;;;;0.55;0.32;;;20.60;55.80;;;;;;5031612;28;20045;-66
2022/05/14 01:01:46;;;;;;;0.40;0.40;;;20.60;55.80;;;;;;5032757;28;20021;-66
2022/05/14 01:04:11;;;;;;;1.80;0.50;;;20.60;55.80;;;;;;5031457;28;20445;-66
2022/05/14 01:06:38;;;;;;;0.50;0.40;;;20.60;55.90;;;;;;5031586;28;20036;-67
2022/05/14 01:09:05;;;;;;;0.52;0.40;;;20.60;56.00;;;;;;5031194;28;20104;-67
2022/05/14 01:11:32;;;;;;;2.42;0.40;;;20.60;56.00;;;;;;5032497;28;20033;-67
2022/05/14 01:13:58;;;;;;;0.82;0.60;;;20.60;56.00;;;;;;5042101;28;20025;-67
2022/05/14 01:16:23;;;;;;;0.85;0.30;;;20.60;56.10;;;;;;5052060;28;20024;-67
2022/05/14 01:18:49;;;;;;;0.90;0.40;;;20.60;56.10;;;;;;5052590;28;20112;-67
2022/05/14 01:21:25;;;;;;;1.17;0.40;;;20.60;56.20;;;;;;5051132;28;20110;-67
2022/05/14 01:26:37;;;;;;;0.60;0.40;;;20.60;56.30;;;;;;5052362;28;20032;-67
2022/05/14 01:29:12;;;;;;;2.17;0.50;;;20.60;56.30;;;;;;5051090;28;20041;-66
2022/05/14 01:31:38;;;;;;;0.30;0.30;;;20.60;56.40;;;;;;5051010;28;20032;-66
2022/05/14 01:34:06;;;;;;;0.55;0.47;;;20.60;56.40;;;;;;5051186;28;20025;-67
2022/05/14 01:36:36;;;;;;;0.80;0.40;;;20.60;56.50;;;;;;5052108;28;20025;-67
2022/05/14 01:39:03;;;;;;;0.57;0.30;;;20.60;56.50;;;;;;5034286;28;20044;-67
2022/05/14 01:41:28;;;;;;;3.25;0.50;;;20.60;56.50;;;;;;5031151;28;20100;-67
2022/05/14 01:43:54;;;;;;;0.43;0.40;;;20.60;56.50;;;;;;5031132;28;20488;-67
2022/05/14 01:46:20;;;;;;;0.57;0.30;;;20.60;56.50;;;;;;5030952;28;20071;-67
2022/05/14 01:48:46;;;;;;;0.63;0.40;;;20.60;56.60;;;;;;5031065;28;20022;-67
2022/05/14 01:51:12;;;;;;;0.90;0.35;;;20.60;56.60;;;;;;5030959;28;20044;-67
2022/05/14 01:53:38;;;;;;;1.63;0.40;;;20.50;56.50;;;;;;5030765;28;20116;-67
2022/05/14 01:56:04;;;;;;;0.50;0.40;;;20.60;56.60;;;;;;5031008;28;20112;-67
2022/05/14 01:58:38;;;;;;;1.45;0.65;;;20.50;56.60;;;;;;5030850;28;20395;-67
2022/05/14 02:01:11;;;;;;;2.42;0.50;;;20.50;56.60;;;;;;5030974;28;20025;-66
2022/05/14 02:03:37;;;;;;;1.00;0.50;;;20.60;56.70;;;;;;5032015;28;20037;-66
2022/05/14 02:06:03;;;;;;;1.20;0.30;;;20.50;56.70;;;;;;5032046;28;20092;-67
2022/05/14 02:08:29;;;;;;;1.52;0.60;;;20.50;56.70;;;;;;5030590;28;20109;-67
2022/05/14 02:10:55;;;;;;;0.95;0.50;;;20.60;56.80;;;;;;5031815;28;20096;-67
2022/05/14 02:13:20;;;;;;;1.60;0.52;;;20.50;56.90;;;;;;5037463;28;20446;-66
2022/05/14 02:15:46;;;;;;;2.40;0.55;;;20.50;56.80;;;;;;5052023;28;20021;-66
2022/05/14 02:18:13;;;;;;;1.83;0.68;;;20.50;56.80;;;;;;5051711;28;20036;-66
2022/05/14 02:20:38;;;;;;;1.10;0.45;;;20.60;56.90;;;;;;5051841;28;20031;-66
2022/05/14 02:23:04;;;;;;;0.98;0.63;;;20.60;57.00;;;;;;5051669;28;20402;-67
2022/05/14 02:25:30;;;;;;;2.95;0.50;;;20.50;56.90;;;;;;5051616;28;20392;-67
2022/05/14 02:27:55;;;;;;;1.38;0.40;;;20.50;56.90;;;;;;5052494;28;20475;-67
2022/05/14 02:30:21;;;;;;;0.98;0.47;;;20.50;56.90;;;;;;5054360;28;20036;-67
2022/05/14 02:32:47;;;;;;;1.70;0.60;;;20.50;56.90;;;;;;5037730;28;20028;-67
2022/05/14 02:35:13;;;;;;;1.15;0.45;;;20.50;57.00;;;;;;5055619;28;20036;-67
2022/05/14 02:37:38;;;;;;;1.75;0.60;;;20.50;57.00;;;;;;5055130;28;20474;-67
2022/05/14 02:40:05;;;;;;;2.85;0.50;;;20.50;57.00;;;;;;5055019;28;20483;-67
2022/05/14 02:42:30;;;;;;;0.93;0.57;;;20.50;57.00;;;;;;5043732;28;20179;-67
2022/05/14 02:44:56;;;;;;;3.03;0.52;;;20.50;57.10;;;;;;5034241;28;20096;-67
2022/05/14 02:47:23;;;;;;;0.75;0.32;;;20.50;57.10;;;;;;5035429;28;20029;-67
2022/05/14 02:49:49;;;;;;;0.80;0.40;;;20.50;57.20;;;;;;5034028;28;20024;-67
2022/05/14 02:52:14;;;;;;;0.47;0.45;;;20.50;57.20;;;;;;5034853;28;20407;-66
2022/05/14 02:54:40;;;;;;;2.33;0.88;;;20.50;57.20;;;;;;5035257;28;20029;-67
2022/05/14 02:57:06;;;;;;;0.43;0.30;;;20.50;57.20;;;;;;5033976;28;20427;-67
2022/05/14 02:59:33;;;;;;;2.35;0.45;;;20.50;57.20;;;;;;5033907;28;20024;-67
2022/05/14 03:01:58;;;;;;;1.50;0.50;;;20.50;57.20;;;;;;5033851;28;20547;-67
2022/05/14 03:04:29;;;;;;;1.08;0.57;;;20.50;57.30;;;;;;5034886;28;20096;-66
2022/05/14 03:06:55;;;;;;;1.63;0.50;;;20.50;57.30;;;;;;5033663;28;20464;-66
2022/05/14 03:09:21;;;;;;;0.93;0.50;;;20.50;57.30;;;;;;5033713;28;20040;-67
2022/05/14 03:11:47;;;;;;;0.88;0.32;;;20.50;57.40;;;;;;5034860;28;20033;-67
2022/05/14 03:14:13;;;;;;;1.85;0.50;;;20.50;57.40;;;;;;5046110;28;20029;-67
2022/05/14 03:16:40;;;;;;;2.15;0.50;;;20.50;57.40;;;;;;5036894;28;20412;-67
2022/05/14 03:19:05;;;;;;;2.88;0.50;;;20.40;57.30;;;;;;5053619;28;20100;-67
2022/05/14 03:21:31;;;;;;;0.65;0.50;;;20.50;57.50;;;;;;5054143;28;20104;-67
2022/05/14 03:23:57;;;;;;;0.75;0.43;;;20.40;57.40;;;;;;5054569;28;20056;-67
2022/05/14 03:26:23;;;;;;;0.63;0.20;;;20.50;57.40;;;;;;5053206;28;20025;-67
2022/05/14 03:28:49;;;;;;;0.85;0.45;;;20.50;57.50;;;;;;5053193;28;20478;-67
2022/05/14 03:31:15;;;;;;;0.60;0.50;;;20.50;57.50;;;;;;5051739;28;20037;-66
2022/05/14 03:33:40;;;;;;;0.90;0.60;;;20.50;57.50;;;;;;5031751;28;20020;-66
2022/05/14 03:36:06;;;;;;;0.50;0.50;;;20.50;57.60;;;;;;5041629;28;20021;-66
2022/05/14 03:38:32;;;;;;;0.70;0.38;;;20.50;57.50;;;;;;5043918;28;20017;-66
2022/05/14 03:40:58;;;;;;;1.25;0.40;;;20.40;57.50;;;;;;5031465;28;20076;-67
2022/05/14 03:43:23;;;;;;;1.10;0.43;;;20.40;57.50;;;;;;5041369;28;20036;-66
2022/05/14 03:45:49;;;;;;;1.23;0.50;;;20.50;57.60;;;;;;5044200;28;20079;-67
2022/05/14 03:48:15;;;;;;;1.02;0.40;;;20.50;57.60;;;;;;5035876;28;20100;-66
2022/05/14 03:50:40;;;;;;;0.60;0.50;;;20.40;57.60;;;;;;5033214;28;20057;-66
2022/05/14 03:53:07;;;;;;;2.50;0.60;;;20.40;57.60;;;;;;5034621;28;20025;-67
2022/05/14 03:55:33;;;;;;;1.95;0.60;;;20.50;57.60;;;;;;5034438;28;20048;-67
2022/05/14 03:57:59;;;;;;;1.40;0.70;;;20.50;57.70;;;;;;5034704;28;20411;-66
2022/05/14 04:00:25;;;;;;;0.75;0.52;;;20.40;57.60;;;;;;5034154;28;20029;-67
2022/05/14 04:02:50;;;;;;;1.10;0.50;;;20.40;57.60;;;;;;5034355;28;20032;-66
2022/05/14 04:05:16;;;;;;;1.92;0.60;;;20.40;57.70;;;;;;5034357;28;20104;-66
2022/05/14 04:07:43;;;;;;;0.75;0.40;;;20.50;57.70;;;;;;5033026;28;20026;-67
2022/05/14 04:10:09;;;;;;;8.23;0.88;;;20.50;57.80;;;;;;5034158;28;20029;-67
2022/05/14 04:12:35;;;;;;;0.75;0.40;;;20.40;57.70;;;;;;5016262;28;20406;-66
2022/05/14 04:15:00;;;;;;;1.15;0.50;;;20.40;57.70;;;;;;5048815;28;20499;-67
2022/05/14 04:17:26;;;;;;;1.52;0.70;;;20.50;57.80;;;;;;5048967;28;20028;-66
2022/05/14 04:19:52;;;;;;;0.60;0.40;;;20.50;57.80;;;;;;5049494;28;20025;-66
2022/05/14 04:22:18;;;;;;;1.58;0.52;;;20.50;57.80;;;;;;5048299;28;20029;-67
2022/05/14 04:24:43;;;;;;;0.60;0.40;;;20.40;57.70;;;;;;5050390;28;20025;-66
2022/05/14 04:27:09;;;;;;;2.50;0.60;;;20.40;57.70;;;;;;5051498;28;20060;-67
2022/05/14 04:29:35;;;;;;;2.78;0.60;;;20.40;57.80;;;;;;5049311;28;20046;-67
2022/05/14 04:32:00;;;;;;;1.48;0.63;;;20.40;57.80;;;;;;5048973;28;20049;-67
2022/05/14 04:34:26;;;;;;;0.77;0.47;;;20.40;57.80;;;;;;5046988;28;20025;-66
2022/05/14 04:36:51;;;;;;;2.92;0.60;;;20.40;57.80;;;;;;5051419;28;20031;-66
2022/05/14 04:39:17;;;;;;;0.32;0.32;;;20.40;57.80;;;;;;5044979;28;20272;-67
2022/05/14 04:41:43;;;;;;;1.05;0.40;;;20.40;57.80;;;;;;5048455;28;20095;-66
2022/05/14 04:44:08;;;;;;;2.38;0.70;;;20.40;57.80;;;;;;5048875;28;20017;-66
2022/05/14 04:46:35;;;;;;;1.63;0.47;;;20.30;57.80;;;;;;5047526;28;20048;-66
2022/05/14 04:49:01;;;;;;;2.92;0.82;;;20.40;57.80;;;;;;5046791;28;20471;-66
2022/05/14 04:51:27;;;;;;;2.00;0.50;;;20.40;57.90;;;;;;5045384;28;20021;-67
2022/05/14 04:53:52;;;;;;;1.20;0.55;;;20.40;57.90;;;;;;5045162;28;20056;-67
2022/05/14 04:56:18;;;;;;;3.35;0.50;;;20.30;57.90;;;;;;5047399;28;20032;-67
2022/05/14 04:58:44;;;;;;;2.33;0.43;;;20.40;57.90;;;;;;5046599;28;20497;-67
2022/05/14 05:01:10;;;;;;;0.65;0.47;;;20.30;57.90;;;;;;5050913;28;20025;-67
2022/05/14 05:03:36;;;;;;;1.35;0.40;;;20.40;58.00;;;;;;5031783;28;20107;-67
2022/05/14 05:06:01;;;;;;;2.38;0.55;;;20.40;57.90;;;;;;5050243;28;20174;-67
2022/05/14 05:08:29;;;;;;;2.05;0.60;;;20.30;57.90;;;;;;5049527;28;20016;-67
2022/05/14 05:10:55;;;;;;;2.13;0.88;;;20.30;57.90;;;;;;5025237;28;20033;-67
2022/05/14 05:13:22;;;;;;;2.17;0.52;;;20.40;58.00;;;;;;5046139;28;20030;-67
2022/05/14 05:15:48;;;;;;;0.82;0.50;;;20.40;58.00;;;;;;5049891;28;20020;-67
2022/05/14 05:18:13;;;;;;;1.17;0.50;;;20.30;58.00;;;;;;5044497;28;20398;-67
2022/05/14 05:20:41;;;;;;;1.83;0.50;;;20.30;58.00;;;;;;5045191;28;20025;-67
2022/05/14 05:23:08;;;;;;;3.45;0.60;;;20.30;58.00;;;;;;5027206;28;20022;-67
2022/05/14 05:25:35;;;;;;;0.93;0.45;;;20.30;58.00;;;;;;5030770;28;20017;-67
2022/05/14 05:28:01;;;;;;;1.83;0.60;;;20.30;58.00;;;;;;5050528;28;20029;-67
2022/05/14 05:30:26;;;;;;;1.85;0.45;;;20.30;58.10;;;;;;5049081;28;20017;-67
2022/05/14 05:32:52;;;;;;;2.28;0.80;;;20.30;58.10;;;;;;5048470;28;20402;-67
2022/05/14 05:35:19;;;;;;;2.50;0.40;;;20.30;58.10;;;;;;5047553;28;20017;-67
2022/05/14 05:37:45;;;;;;;0.75;0.50;;;20.30;58.10;;;;;;5048282;28;20116;-67
2022/05/14 05:40:11;;;;;;;0.47;0.47;;;20.30;59.20;;;;;;5048959;28;20552;-67
2022/05/14 05:42:37;;;;;;;4.35;0.70;;;20.30;58.10;;;;;;5049830;28;20029;-67
2022/05/14 05:45:03;;;;;;;1.23;0.40;;;20.30;58.10;;;;;;5046572;28;20031;-67
2022/05/14 05:47:29;;;;;;;1.90;0.40;;;20.30;58.10;;;;;;5044229;28;20098;-67
2022/05/14 05:49:54;;;;;;;0.98;0.32;;;20.20;58.10;;;;;;5048475;28;20116;-66
2022/05/14 05:52:20;;;;;;;1.52;0.40;;;20.30;58.10;;;;;;5049099;28;20033;-66
2022/05/14 05:57:31;;;;;;;0.50;0.50;;;20.30;58.20;;;;;;5051635;28;20553;-67
2022/05/14 05:59:57;;;;;;;1.88;0.73;;;20.20;58.20;;;;;;5052418;28;20039;-67
2022/05/14 06:02:23;;;;;;;3.00;0.57;;;20.20;58.20;;;;;;5053464;28;20471;-67
2022/05/14 06:04:48;;;;;;;0.98;0.55;;;20.20;58.20;;;;;;5056424;28;20510;-67
2022/05/14 06:07:14;;;;;;;1.15;0.40;;;20.20;58.20;;;;;;5056865;28;20100;-67
2022/05/14 06:09:39;;;;;;;1.20;0.57;;;20.20;58.20;;;;;;5056527;28;20028;-66
2022/05/14 06:12:06;;;;;;;2.38;0.50;;;20.20;58.30;;;;;;5056595;28;20060;-66
2022/05/14 06:14:32;;;;;;;0.88;0.50;;;20.20;58.30;;;;;;5040716;28;20029;-66
2022/05/14 06:16:58;;;;;;;1.15;0.50;;;20.20;58.30;;;;;;5036677;28;20034;-66
2022/05/14 06:19:23;;;;;;;0.93;0.60;;;20.20;58.30;;;;;;5036372;28;20113;-66
2022/05/14 06:21:49;;;;;;;0.63;0.40;;;20.20;58.30;;;;;;5036400;28;20032;-67
2022/05/14 06:24:15;;;;;;;1.15;0.50;;;20.20;58.40;;;;;;5036351;28;20029;-67
2022/05/14 06:26:40;;;;;;;1.50;0.70;;;20.20;58.40;;;;;;5036454;28;20017;-67
2022/05/14 06:29:06;;;;;;;1.75;0.43;;;20.20;58.40;;;;;;5036187;28;20438;-67
2022/05/14 06:31:32;;;;;;;1.02;0.50;;;20.20;58.40;;;;;;5034797;28;20021;-67
2022/05/14 06:33:59;;;;;;;0.40;0.40;;;20.20;58.40;;;;;;5034969;28;20032;-67
2022/05/14 06:36:24;;;;;;;1.85;0.70;;;20.20;58.40;;;;;;5051518;28;20056;-67
2022/05/14 06:38:50;;;;;;;1.00;0.47;;;20.20;58.40;;;;;;5056161;28;20056;-67
2022/05/14 06:41:16;;;;;;;1.02;0.50;;;20.30;58.50;;;;;;5054520;28;20122;-67
2022/05/14 06:43:42;;;;;;;1.40;0.80;;;20.20;58.50;;;;;;5034475;28;20026;-67
2022/05/14 06:46:08;;;;;;;1.13;0.50;;;20.20;58.50;;;;;;5034659;28;20087;-67
2022/05/14 06:48:34;;;;;;;0.70;0.50;;;20.20;58.50;;;;;;5034808;28;20460;-67
2022/05/14 06:51:02;;;;;;;0.50;0.50;;;20.20;58.60;;;;;;5034486;28;20079;-67
2022/05/14 06:53:28;;;;;;;0.65;0.60;;;20.20;58.60;;;;;;5034496;28;20028;-67
2022/05/14 06:55:55;;;;;;;1.25;0.50;;;20.20;58.70;;;;;;5035493;28;20021;-67
2022/05/14 06:58:23;;;;;;;0.98;0.52;;;20.20;58.60;;;;;;5034199;28;20034;-67
2022/05/14 07:00:50;;;;;;;1.13;0.63;;;20.20;58.70;;;;;;5034157;28;20021;-67
2022/05/14 07:08:44;;;;;;;1.10;0.52;;;20.20;58.80;;;;;;5035567;28;20083;-67
2022/05/14 07:11:10;;;;;;;1.38;0.65;;;20.20;58.80;;;;;;5035512;28;20030;-67
2022/05/14 07:13:36;;;;;;;2.15;0.50;;;20.20;58.80;;;;;;5033414;28;20029;-67
2022/05/14 07:16:02;;;;;;;1.05;0.52;;;20.20;58.80;;;;;;5035358;28;20029;-67
2022/05/14 07:18:28;;;;;;;0.88;0.43;;;20.20;58.80;;;;;;5034485;28;20032;-67
2022/05/14 07:20:54;;;;;;;1.63;0.60;;;20.20;58.80;;;;;;5035156;28;20022;-67
2022/05/14 07:23:20;;;;;;;3.33;0.73;;;20.20;58.80;;;;;;5047062;28;20112;-67
2022/05/14 07:25:46;;;;;;;0.65;0.45;;;20.20;58.90;;;;;;5030214;28;20112;-67
2022/05/14 07:28:11;;;;;;;0.85;0.50;;;20.20;58.90;;;;;;5050322;28;20021;-67
2022/05/14 07:30:37;;;;;;;0.45;0.45;;;20.20;58.90;;;;;;5047019;28;20070;-67
2022/05/14 07:33:03;;;;;;;1.05;0.30;;;20.20;58.90;;;;;;5052112;28;20380;-67
2022/05/14 07:35:28;;;;;;;1.13;0.40;;;20.20;58.90;;;;;;5050197;28;20076;-67
2022/05/14 07:37:54;;;;;;;3.80;0.55;;;20.20;58.90;;;;;;5044953;28;20048;-67
2022/05/14 07:40:22;;;;;;;1.48;0.65;;;20.20;59.00;;;;;;5048612;28;20081;-67
2022/05/14 07:43:00;;;;;;;0.70;0.47;;;20.20;58.90;;;;;;5049683;28;20035;-66
2022/05/14 07:45:33;;;;;;;1.08;0.50;;;20.20;59.00;;;;;;5035330;28;20113;-66
2022/05/14 07:47:59;;;;;;;0.50;0.50;;;20.20;59.00;;;;;;5048034;28;20017;-66
2022/05/14 07:50:24;;;;;;;1.38;0.43;;;20.20;59.00;;;;;;5044628;28;20025;-66
2022/05/14 07:52:51;;;;;;;2.13;0.82;;;20.20;59.10;;;;;;5048609;28;20021;-66
2022/05/14 07:55:17;;;;;;;1.50;0.43;;;20.20;59.10;;;;;;5050285;28;20508;-67
2022/05/14 07:57:43;;;;;;;0.90;0.57;;;20.20;59.10;;;;;;5047766;28;20543;-67
2022/05/14 08:00:09;;;;;;;1.52;0.60;;;20.20;59.10;;;;;;5050416;28;20025;-67
2022/05/14 08:02:35;;;;;;;0.93;0.40;;;20.20;59.70;;;;;;5046272;28;20066;-67
2022/05/14 08:05:03;;;;;;;0.75;0.50;;;20.20;59.20;;;;;;5047367;28;20024;-67
2022/05/14 08:07:29;;;;;;;0.85;0.70;;;20.20;59.20;;;;;;5048418;28;20036;-67
2022/05/14 08:09:55;;;;;;;0.40;0.40;;;20.20;59.20;;;;;;5049310;28;20017;-67
2022/05/14 08:12:21;;;;;;;0.47;0.40;;;20.20;59.20;;;;;;5043309;28;20537;-66
2022/05/14 08:14:47;;;;;;;0.43;0.40;;;20.20;59.30;;;;;;5047223;28;20437;-67
2022/05/14 08:17:12;;;;;;;2.58;0.50;;;20.20;59.30;;;;;;5048278;28;20029;-67
2022/05/14 08:19:38;;;;;;;1.35;0.47;;;20.20;59.30;;;;;;5047114;28;20020;-67
2022/05/14 08:24:49;;;;;;;0.73;0.43;;;20.20;59.30;;;;;;5035680;28;20078;-67
2022/05/14 08:27:14;;;;;;;0.98;0.40;;;20.20;59.40;;;;;;5050012;28;20033;-67
2022/05/14 08:29:40;;;;;;;1.90;0.60;;;20.20;59.40;;;;;;5046161;28;20029;-67
2022/05/14 08:32:06;;;;;;;0.52;0.52;;;20.20;59.40;;;;;;5030616;28;20403;-67
2022/05/14 08:34:32;;;;;;;0.43;0.43;;;20.20;59.40;;;;;;5046864;28;20494;-67
2022/05/14 08:36:58;;;;;;;1.88;0.65;;;20.20;59.40;;;;;;5029344;28;20102;-67
2022/05/14 08:39:24;;;;;;;0.50;0.40;;;20.20;59.40;;;;;;5048243;28;20475;-67
2022/05/14 08:41:51;;;;;;;1.75;0.60;;;20.20;59.40;;;;;;5045283;28;20053;-67
2022/05/14 08:44:27;;;;;;;0.50;0.50;;;20.20;59.50;;;;;;5039287;28;20021;-67
2022/05/14 08:46:57;;;;;;;0.68;0.40;;;20.20;59.50;;;;;;5051207;28;20020;-66
2022/05/14 08:49:43;;;;;;;0.98;0.55;;;20.20;59.60;;;;;;5051065;28;20032;-67
2022/05/14 08:52:29;;;;;;;2.05;0.77;;;20.30;59.20;;;;;;5051544;28;20438;-70
2022/05/14 08:55:04;;;;;;;1.35;1.10;;;20.20;58.70;;;;;;5051424;28;20025;-70
2022/05/14 08:57:38;;;;;;;3.97;0.80;;;20.10;58.40;;;;;;5051680;28;20077;-70
2022/05/14 09:00:05;;;;;;;4.22;1.00;;;19.90;58.30;;;;;;5052825;28;20032;-71
2022/05/14 09:02:46;;;;;;;3.83;1.08;;;19.80;58.60;;;;;;5051540;28;20021;-71
2022/05/14 09:05:35;;;;;;;3.67;1.08;;;19.80;58.40;;;;;;5051585;28;20100;-71
2022/05/14 09:08:01;;;;;;;2.28;0.80;;;19.80;57.90;;;;;;5051549;28;20066;-71
2022/05/14 09:10:33;;;;;;;2.80;1.30;;;19.80;58.40;;;;;;5034986;28;20112;-72
2022/05/14 09:13:01;;;;;;;3.50;1.10;;;19.80;58.30;;;;;;5051483;28;20447;-71
2022/05/14 09:15:31;;;;;;;4.45;1.33;;;19.70;58.30;;;;;;5035191;28;20036;-72
2022/05/14 09:18:08;;;;;;;3.25;1.00;;;19.70;58.30;;;;;;5051306;28;20475;-73
2022/05/14 09:21:07;;;;;;;4.05;1.17;;;19.70;57.90;;;;;;5051194;28;20151;-73
2022/05/14 09:23:46;;;;;;;8.18;1.17;;;19.70;57.50;;;;;;5050176;28;20068;-73
2022/05/14 09:26:17;;;;;;;3.90;1.13;;;19.70;58.00;;;;;;5033984;28;20648;-72
2022/05/14 09:28:47;;;;;;;3.67;1.38;;;19.70;57.90;;;;;;5034206;28;20028;-72
2022/05/14 09:31:23;;;;;;;3.17;0.95;;;19.70;58.00;;;;;;5033924;28;20124;-70
2022/05/14 09:33:58;;;;;;;2.72;1.08;;;19.70;57.80;;;;;;5033535;28;20511;-71
2022/05/14 09:36:24;;;;;;;3.60;1.15;;;19.60;57.80;;;;;;5034737;28;20052;-71
2022/05/14 09:39:07;;;;;;;5.35;1.13;;;19.60;57.80;;;;;;5033391;28;20067;-70
2022/05/14 09:41:49;;;;;;;;;;;19.60;57.60;;;;;;5016878;28;20143;-71
2022/05/14 09:44:20;;;;;;;2.08;1.00;;;19.50;57.40;;;;;;5033577;28;19955;-71
2022/05/14 09:46:47;;;;;;;4.22;1.00;;;19.50;57.80;;;;;;5017432;28;20498;-71
2022/05/14 09:49:24;;;;;;;2.85;1.00;;;19.50;57.80;;;;;;5033635;28;20029;-71
2022/05/14 09:52:05;;;;;;;2.22;0.90;;;19.50;57.70;;;;;;5034382;28;20029;-71
2022/05/14 09:54:36;;;;;;;2.67;0.80;;;19.60;57.70;;;;;;5018584;28;20043;-72
2022/05/14 09:57:13;;;;;;;2.65;0.88;;;19.60;58.80;;;;;;5015178;28;20502;-71
2022/05/14 09:59:48;;;;;;;2.38;0.70;;;19.60;57.60;;;;;;5045128;28;20414;-71
2022/05/14 10:02:46;;;;;;;2.00;0.88;;;19.60;57.60;;;;;;5051800;28;20025;-71
2022/05/14 10:05:50;;;;;;;1.58;0.70;;;19.60;57.30;;;;;;5051235;28;20395;-71
2022/05/14 10:08:34;;;;;;;2.78;0.80;;;19.60;57.20;;;;;;5051733;28;20031;-72
2022/05/14 10:11:17;;;;;;;1.83;0.90;;;19.60;57.30;;;;;;5051586;28;20025;-71
2022/05/14 10:13:51;;;;;;;1.08;0.75;;;19.60;57.20;;;;;;5051865;28;20025;-71
2022/05/14 10:16:25;;;;;;;3.25;1.00;;;19.60;57.40;;;;;;5050606;28;20545;-71
2022/05/14 10:19:11;;;;;;;3.50;0.95;;;19.60;57.40;;;;;;5050684;28;20028;-71
2022/05/14 10:21:52;;;;;;;2.03;0.80;;;19.70;57.10;;;;;;5051325;28;20025;-71
2022/05/14 10:28:11;;;;;;;2.03;0.77;;;19.70;57.20;;;;;;5051703;28;20040;-72
2022/05/14 10:31:05;;;;;;;1.60;0.98;;;19.70;57.00;;;;;;5049522;28;20104;-72
2022/05/14 10:33:32;;;;;;;1.42;0.60;;;19.60;57.00;;;;;;5042146;28;20033;-72
2022/05/14 10:36:03;;;;;;;0.80;0.50;;;19.60;57.30;;;;;;5032701;28;20072;-72
2022/05/14 10:38:44;;;;;;;3.10;0.68;;;19.60;57.20;;;;;;5049547;28;20446;-72
2022/05/14 10:41:11;;;;;;;1.65;0.80;;;19.60;57.10;;;;;;5032063;28;20527;-72
2022/05/14 10:43:39;;;;;;;2.13;0.93;;;19.60;57.20;;;;;;5013202;28;20026;-72
2022/05/14 10:46:11;;;;;;;2.05;0.88;;;19.60;57.10;;;;;;5029385;28;20030;-72
2022/05/14 10:48:59;;;;;;;1.52;0.70;;;19.70;57.20;;;;;;5014127;28;20052;-71
2022/05/14 10:51:30;;;;;;;2.40;0.93;;;19.70;57.10;;;;;;5016586;28;20037;-72
2022/05/14 10:53:57;;;;;;;2.17;0.82;;;19.70;57.10;;;;;;5016507;28;20083;-72
2022/05/14 10:56:24;;;;;;;3.75;0.70;;;19.70;57.20;;;;;;5016174;28;20033;-72
2022/05/14 10:59:00;;;;;;;1.77;0.60;;;19.70;57.10;;;;;;5016516;28;20045;-72
2022/05/14 11:01:46;;;;;;;1.25;0.60;;;19.70;57.10;;;;;;5032750;28;20037;-72
2022/05/14 11:04:29;;;;;;;0.95;0.70;;;19.70;56.90;;;;;;5032581;28;20556;-72
2022/05/14 11:07:07;;;;;;;;;;;19.70;57.00;;;;;;5031581;28;20060;-72
2022/05/14 11:09:45;;;;;;;2.30;0.82;;;19.60;57.00;;;;;;5033609;28;19909;-72
2022/05/14 11:12:18;;;;;;;2.70;1.13;;;19.60;57.30;;;;;;5034241;28;20025;-71
2022/05/14 11:14:48;;;;;;;1.15;0.60;;;19.70;57.40;;;;;;5046556;28;20450;-72
2022/05/14 11:17:27;;;;;;;1.40;0.65;;;19.70;57.30;;;;;;5049952;28;20034;-72
2022/05/14 11:20:05;;;;;;;1.48;0.65;;;19.70;57.20;;;;;;5034618;28;20116;-72
2022/05/14 11:22:41;;;;;;;3.03;0.75;;;19.70;57.20;;;;;;5049986;28;20033;-72
2022/05/14 11:25:22;;;;;;;1.73;0.70;;;19.70;57.20;;;;;;5034569;28;20029;-72
2022/05/14 11:28:07;;;;;;;2.45;1.05;;;19.80;57.10;;;;;;5034507;28;20497;-72
2022/05/14 11:30:38;;;;;;;2.60;0.73;;;19.70;57.00;;;;;;5033336;28;20342;-72
2022/05/14 11:33:06;;;;;;;1.42;0.57;;;19.70;57.20;;;;;;5049248;28;20017;-72
2022/05/14 11:35:40;;;;;;;1.38;0.60;;;19.70;57.10;;;;;;5033093;28;20020;-72
2022/05/14 11:38:31;;;;;;;2.20;0.95;;;19.70;57.00;;;;;;5049361;28;20104;-72
2022/05/14 11:41:11;;;;;;;1.00;0.60;;;19.80;57.00;;;;;;5033602;28;20050;-71
2022/05/14 11:43:43;;;;;;;1.65;0.98;;;19.80;57.10;;;;;;5017124;28;20033;-72
2022/05/14 11:46:09;;;;;;;1.95;0.88;;;19.80;57.10;;;;;;5033086;28;20041;-73
2022/05/14 11:48:48;;;;;;;1.73;0.68;;;19.80;58.10;;;;;;5034066;28;20025;-72
2022/05/14 11:51:47;;;;;;;1.30;0.77;;;19.80;57.00;;;;;;5032898;28;20025;-72
2022/05/14 11:54:20;;;;;;;1.35;0.60;;;19.80;56.90;;;;;;5032887;28;20037;-72
2022/05/14 11:56:55;;;;;;;1.60;0.85;;;19.80;57.10;;;;;;5016902;28;20049;-72
2022/05/14 11:59:33;;;;;;;1.60;0.80;;;19.80;57.10;;;;;;5033928;28;20036;-72
2022/05/14 12:02:01;;;;;;;1.35;0.93;;;19.80;57.00;;;;;;5017319;28;20100;-71
2022/05/14 12:04:31;;;;;;;2.15;0.90;;;19.80;57.00;;;;;;5032655;28;20032;-72
2022/05/14 12:07:08;;;;;;;2.08;0.80;;;19.80;58.00;;;;;;5033784;28;20116;-72
2022/05/14 12:09:43;;;;;;;1.70;0.90;;;19.90;57.00;;;;;;5033720;28;20108;-72
2022/05/14 12:12:14;;;;;;;3.47;0.88;;;19.80;57.00;;;;;;5033567;28;20021;-74
2022/05/14 12:14:39;;;;;;;2.00;0.70;;;19.80;56.90;;;;;;5045340;28;20033;-73
2022/05/14 12:17:07;;;;;;;1.73;0.80;;;19.90;57.00;;;;;;5048852;28;20082;-73
2022/05/14 12:19:34;;;;;;;1.88;0.85;;;19.90;57.00;;;;;;5032418;28;20026;-73
2022/05/14 12:22:15;;;;;;;1.45;1.00;;;19.90;57.00;;;;;;5048735;28;20052;-73
2022/05/14 12:24:51;;;;;;;1.92;0.88;;;19.90;56.90;;;;;;5048821;28;20064;-73
2022/05/14 12:27:18;;;;;;;1.05;0.60;;;19.90;57.00;;;;;;5032251;28;20021;-71
2022/05/14 12:30:12;;;;;;;2.97;1.20;;;19.90;56.90;;;;;;5032178;28;20048;-71
2022/05/14 12:35:30;;;;;;;1.20;0.90;;;19.90;56.90;;;;;;5045990;28;20063;-72
2022/05/14 12:37:56;;;;;;;3.35;0.90;;;19.90;57.00;;;;;;5033471;28;20444;-71
2022/05/14 12:40:30;;;;;;;2.63;1.08;;;19.90;56.90;;;;;;5031851;28;20053;-71
2022/05/14 12:42:56;;;;;;;1.83;0.80;;;20.00;57.00;;;;;;5036740;28;20029;-72
2022/05/14 12:45:38;;;;;;;2.25;0.90;;;19.90;57.00;;;;;;5031642;28;20034;-72
2022/05/14 12:48:05;;;;;;;0.98;0.60;;;20.00;57.00;;;;;;5032117;28;20017;-72
2022/05/14 12:50:32;;;;;;;2.67;1.00;;;20.00;57.00;;;;;;5031751;28;20104;-72
2022/05/14 12:53:00;;;;;;;2.35;0.85;;;20.00;57.10;;;;;;5031707;28;20384;-72
2022/05/14 12:55:26;;;;;;;2.67;0.70;;;20.00;57.00;;;;;;5031769;28;20033;-72
2022/05/14 12:57:52;;;;;;;1.75;0.82;;;20.00;57.00;;;;;;5031614;28;20071;-71
2022/05/14 13:00:20;;;;;;;2.22;1.15;;;20.00;57.00;;;;;;5031462;28;20033;-71
2022/05/14 13:02:58;;;;;;;2.33;1.00;;;20.10;57.00;;;;;;5031566;28;20026;-72
2022/05/14 13:05:34;;;;;;;2.67;0.70;;;20.10;56.90;;;;;;5031391;28;20025;-71
2022/05/14 13:08:19;;;;;;;2.60;0.90;;;20.10;57.00;;;;;;5032684;28;20021;-72
2022/05/14 13:10:59;;;;;;;1.75;0.68;;;20.10;56.90;;;;;;5031359;28;20018;-72
2022/05/14 13:13:32;;;;;;;1.92;0.73;;;20.10;56.90;;;;;;5037237;28;20430;-72
2022/05/14 13:15:57;;;;;;;1.63;0.70;;;20.10;57.00;;;;;;5052635;28;20025;-71
2022/05/14 13:18:25;;;;;;;1.50;0.82;;;20.10;57.00;;;;;;5051110;28;20023;-72
2022/05/14 13:21:00;;;;;;;1.92;0.60;;;20.10;57.00;;;;;;5051015;28;20025;-71